Time;durP1;ratioP1;P1;durP2;ratioP2;P2;SDS_P1;SDS_P2;PMS_P1;PMS_P2;Temp;Humidity;BMP_temperature;BMP_pressure;BME280_temperature;BME280_humidity;BME280_pressure;Samples;Min_cycle;Max_cycle;Signal;HPM_P1;HPM_P2
2022/12/08 00:00:44;;;;;;;12.05;6.95;;;3.00;99.90;;;;;;5099599;28;20383;-75
2022/12/08 00:03:09;;;;;;;11.60;7.32;;;2.90;99.90;;;;;;5100198;28;20016;-75
2022/12/08 00:11:03;;;;;;;12.82;7.43;;;2.60;99.90;;;;;;5117730;28;20038;-76
2022/12/08 00:13:29;;;;;;;10.98;6.75;;;2.60;99.90;;;;;;5100347;28;20032;-75
2022/12/08 00:16:02;;;;;;;10.55;6.70;;;2.70;99.90;;;;;;5118112;28;20030;-75
2022/12/08 00:18:27;;;;;;;11.23;7.32;;;2.70;99.90;;;;;;5099791;28;20031;-75
2022/12/08 00:20:57;;;;;;;11.02;6.85;;;2.70;99.90;;;;;;5100386;28;20038;-76
2022/12/08 00:23:23;;;;;;;12.68;7.68;;;2.80;99.90;;;;;;5118370;28;20055;-76
2022/12/08 00:25:48;;;;;;;13.10;8.82;;;2.80;99.90;;;;;;5117704;28;20509;-76
2022/12/08 00:28:14;;;;;;;14.30;9.18;;;2.80;99.90;;;;;;5117610;28;20481;-76
2022/12/08 00:30:41;;;;;;;15.27;9.45;;;2.70;99.90;;;;;;5117982;28;20031;-75
2022/12/08 00:33:06;;;;;;;18.92;10.25;;;2.70;99.90;;;;;;5099716;28;20383;-76
2022/12/08 00:35:32;;;;;;;20.38;12.48;;;2.70;99.90;;;;;;5117480;28;20035;-76
2022/12/08 00:37:57;;;;;;;17.83;11.20;;;2.60;99.90;;;;;;5117882;28;20068;-75
2022/12/08 00:40:23;;;;;;;21.17;12.90;;;2.60;99.90;;;;;;5117507;28;20039;-75
2022/12/08 00:42:49;;;;;;;19.95;11.50;;;2.60;99.90;;;;;;5117782;28;20484;-75
2022/12/08 00:45:15;;;;;;;19.83;10.45;;;2.50;99.90;;;;;;5099528;28;20020;-76
2022/12/08 00:47:40;;;;;;;19.55;11.20;;;2.50;99.90;;;;;;5117175;28;20027;-75
2022/12/08 00:50:07;;;;;;;17.65;10.52;;;2.50;99.90;;;;;;5099534;28;20100;-76
2022/12/08 00:52:32;;;;;;;16.25;9.80;;;2.50;99.90;;;;;;5099380;28;20134;-76
2022/12/08 00:54:58;;;;;;;16.48;9.98;;;2.60;99.90;;;;;;5098943;28;20051;-76
2022/12/08 00:57:23;;;;;;;15.43;9.77;;;2.60;99.90;;;;;;5099449;28;20107;-75
2022/12/08 00:59:49;;;;;;;17.67;10.27;;;2.60;99.90;;;;;;5117087;28;20047;-76
2022/12/08 01:02:15;;;;;;;18.92;10.65;;;2.60;99.90;;;;;;5099327;28;20030;-76
2022/12/08 01:04:41;;;;;;;18.30;11.15;;;2.50;99.90;;;;;;5099266;28;20038;-75
2022/12/08 01:07:07;;;;;;;16.30;10.25;;;2.40;99.90;;;;;;5117558;28;20030;-75
2022/12/08 01:09:33;;;;;;;16.05;9.57;;;2.30;99.90;;;;;;5117179;28;20393;-75
2022/12/08 01:11:58;;;;;;;14.43;9.65;;;2.20;99.90;;;;;;5117599;28;20024;-74
2022/12/08 01:14:24;;;;;;;18.27;10.77;;;2.20;99.90;;;;;;5117135;28;20530;-75
2022/12/08 01:16:49;;;;;;;17.70;10.40;;;2.20;99.90;;;;;;5117488;28;20026;-75
2022/12/08 01:19:16;;;;;;;17.02;9.75;;;2.10;99.90;;;;;;5086066;28;20031;-75
2022/12/08 01:21:43;;;;;;;16.27;9.45;;;2.20;99.90;;;;;;5117498;28;20024;-75
2022/12/08 01:24:14;;;;;;;13.07;8.50;;;2.40;99.90;;;;;;5117512;28;20015;-75
2022/12/08 01:26:40;;;;;;;13.40;8.43;;;2.50;99.90;;;;;;5099148;28;20476;-76
2022/12/08 01:29:07;;;;;;;13.05;8.07;;;2.50;99.90;;;;;;5117629;28;20032;-76
2022/12/08 01:31:32;;;;;;;12.63;8.60;;;2.60;99.90;;;;;;5116770;28;20031;-75
2022/12/08 01:33:58;;;;;;;13.23;8.57;;;2.60;99.90;;;;;;5117253;28;20388;-75
2022/12/08 01:36:26;;;;;;;11.98;7.88;;;2.60;99.90;;;;;;5116778;28;20108;-75
2022/12/08 01:38:53;;;;;;;13.32;8.30;;;2.70;99.90;;;;;;5117106;28;20045;-75
2022/12/08 01:41:22;;;;;;;14.32;7.65;;;2.70;99.90;;;;;;5117001;28;20055;-75
2022/12/08 01:44:08;;;;;;;13.40;8.30;;;2.70;99.90;;;;;;5117156;28;20032;-75
2022/12/08 01:46:35;;;;;;;9.77;6.57;;;2.70;99.90;;;;;;5099588;28;20160;-76
2022/12/08 01:49:10;;;;;;;9.80;6.22;;;2.70;99.90;;;;;;5102696;28;20395;-76
2022/12/08 01:51:49;;;;;;;8.32;5.55;;;2.70;99.90;;;;;;5121323;28;20040;-76
2022/12/08 01:54:15;;;;;;;9.57;6.45;;;2.70;99.90;;;;;;5120729;28;20089;-75
2022/12/08 01:56:51;;;;;;;7.88;5.30;;;2.60;99.90;;;;;;5120548;28;20028;-75
2022/12/08 01:59:18;;;;;;;8.55;5.22;;;2.50;99.90;;;;;;5120664;28;20032;-75
2022/12/08 02:01:43;;;;;;;7.60;5.45;;;2.50;99.90;;;;;;5102753;28;20028;-76
2022/12/08 02:04:09;;;;;;;6.80;5.10;;;2.60;99.90;;;;;;5102479;28;20616;-75
2022/12/08 02:06:40;;;;;;;7.45;5.13;;;2.50;99.90;;;;;;5120724;28;20024;-75
2022/12/08 02:09:07;;;;;;;7.53;4.72;;;2.50;99.90;;;;;;5120421;28;20486;-75
2022/12/08 02:11:33;;;;;;;9.15;5.55;;;2.50;99.90;;;;;;5120824;28;20387;-75
2022/12/08 02:14:02;;;;;;;7.55;5.15;;;2.50;99.90;;;;;;5102151;28;20024;-76
2022/12/08 02:16:46;;;;;;;8.02;5.13;;;2.40;99.90;;;;;;5102444;28;20031;-75
2022/12/08 02:19:29;;;;;;;7.20;4.85;;;2.50;99.90;;;;;;5120623;28;20483;-75
2022/12/08 02:22:00;;;;;;;7.40;4.70;;;2.50;99.90;;;;;;5120153;28;20028;-76
2022/12/08 02:24:53;;;;;;;6.70;5.32;;;2.50;99.90;;;;;;5120231;28;20020;-76
2022/12/08 02:27:22;;;;;;;7.13;4.75;;;2.50;99.90;;;;;;5120193;28;20043;-76
2022/12/08 02:30:18;;;;;;;8.75;5.60;;;2.50;99.90;;;;;;5119752;28;20042;-76
2022/12/08 02:33:11;;;;;;;10.65;6.53;;;2.60;99.90;;;;;;5110785;28;20037;-76
2022/12/08 02:35:43;;;;;;;10.52;6.50;;;2.60;99.90;;;;;;5118990;28;20499;-76
2022/12/08 02:38:36;;;;;;;9.90;6.00;;;2.50;99.90;;;;;;5101762;28;20050;-76
2022/12/08 02:41:16;;;;;;;9.07;5.05;;;2.50;99.90;;;;;;5119767;28;20016;-75
2022/12/08 02:43:46;;;;;;;9.00;5.43;;;2.50;99.90;;;;;;5101522;28;20030;-75
2022/12/08 02:46:26;;;;;;;7.95;5.47;;;2.50;99.90;;;;;;5096028;28;20020;-75
2022/12/08 02:48:52;;;;;;;7.72;5.03;;;2.40;99.90;;;;;;5119691;28;20085;-76
2022/12/08 02:51:18;;;;;;;6.78;4.85;;;2.40;99.90;;;;;;5119707;28;20449;-75
2022/12/08 02:53:45;;;;;;;7.30;4.72;;;2.40;99.90;;;;;;5101051;28;20085;-76
2022/12/08 02:56:26;;;;;;;7.35;4.90;;;2.40;99.90;;;;;;5119801;28;20032;-76
2022/12/08 02:58:57;;;;;;;6.68;4.28;;;2.40;99.90;;;;;;5100114;28;20063;-76
2022/12/08 03:01:41;;;;;;;6.72;4.07;;;2.30;99.90;;;;;;5117662;28;20020;-76
2022/12/08 03:04:25;;;;;;;;;;;2.40;99.90;;;;;;5101485;28;20024;-75
2022/12/08 03:07:17;;;;;;;4.40;2.90;;;2.40;99.90;;;;;;5119277;28;19908;-75
2022/12/08 03:09:53;;;;;;;4.38;2.70;;;2.50;99.90;;;;;;5106218;28;20082;-76
2022/12/08 03:12:27;;;;;;;4.90;3.42;;;2.50;99.90;;;;;;5119545;28;20066;-75
2022/12/08 03:14:57;;;;;;;4.32;3.35;;;2.50;99.90;;;;;;5119711;28;20028;-75
2022/12/08 03:17:27;;;;;;;5.63;3.58;;;2.50;99.90;;;;;;5100904;28;20035;-76
2022/12/08 03:19:55;;;;;;;5.07;3.70;;;2.50;99.90;;;;;;5119490;28;20100;-75
2022/12/08 03:22:24;;;;;;;5.43;4.18;;;2.60;99.90;;;;;;5119317;28;20023;-76
2022/12/08 03:24:51;;;;;;;4.88;3.40;;;2.60;99.90;;;;;;5119275;28;20020;-75
2022/12/08 03:27:23;;;;;;;5.15;3.20;;;2.50;99.90;;;;;;5118977;28;20036;-75
2022/12/08 03:29:52;;;;;;;4.47;3.20;;;2.50;99.90;;;;;;5100277;28;20038;-76
2022/12/08 03:32:36;;;;;;;5.80;3.60;;;2.50;99.90;;;;;;5119102;28;20039;-75
2022/12/08 03:35:06;;;;;;;4.93;3.35;;;2.50;99.90;;;;;;5118862;28;20031;-76
2022/12/08 03:37:37;;;;;;;5.60;4.25;;;2.40;99.90;;;;;;5118770;28;20054;-76
2022/12/08 03:40:05;;;;;;;5.13;3.47;;;2.30;99.90;;;;;;5100259;28;20037;-76
2022/12/08 03:42:31;;;;;;;6.13;4.18;;;2.30;99.90;;;;;;5100432;28;20463;-76
2022/12/08 03:44:57;;;;;;;7.28;4.28;;;2.30;99.90;;;;;;5100145;28;20031;-75
2022/12/08 03:47:22;;;;;;;6.68;4.35;;;2.30;99.90;;;;;;5100411;28;20037;-75
2022/12/08 03:49:48;;;;;;;9.88;6.32;;;2.20;99.90;;;;;;5118731;28;20110;-76
2022/12/08 03:52:14;;;;;;;10.00;6.63;;;2.10;99.90;;;;;;5118638;28;20071;-76
2022/12/08 03:54:40;;;;;;;11.60;6.65;;;2.10;99.90;;;;;;5099895;28;20032;-76
2022/12/08 03:57:05;;;;;;;9.02;6.00;;;2.10;99.90;;;;;;5118454;28;20035;-76
2022/12/08 03:59:31;;;;;;;10.95;6.30;;;2.10;99.90;;;;;;5099905;28;20443;-76
2022/12/08 04:01:56;;;;;;;9.43;5.97;;;2.10;99.90;;;;;;5100135;28;20024;-76
2022/12/08 04:04:22;;;;;;;6.38;4.55;;;2.10;99.90;;;;;;5118195;28;20024;-76
2022/12/08 04:06:49;;;;;;;8.05;4.72;;;2.10;99.90;;;;;;5099726;28;20032;-77
2022/12/08 04:09:15;;;;;;;7.03;4.57;;;2.10;99.90;;;;;;5099281;28;20541;-76
2022/12/08 04:11:41;;;;;;;5.85;3.80;;;2.10;99.90;;;;;;5118063;28;20032;-76
2022/12/08 04:14:06;;;;;;;7.47;4.55;;;2.10;99.90;;;;;;5118129;28;20084;-76
2022/12/08 04:16:32;;;;;;;6.25;4.50;;;2.10;99.90;;;;;;5099646;28;20110;-76
2022/12/08 04:18:58;;;;;;;5.57;3.75;;;2.20;99.90;;;;;;5099798;28;20491;-76
2022/12/08 04:21:23;;;;;;;8.15;4.80;;;2.20;99.90;;;;;;5118136;28;20136;-76
2022/12/08 04:23:49;;;;;;;6.20;4.20;;;2.10;99.90;;;;;;5117932;28;20050;-76
2022/12/08 04:26:15;;;;;;;6.47;4.53;;;2.10;99.90;;;;;;5117344;28;20023;-75
2022/12/08 04:28:41;;;;;;;6.78;5.07;;;2.20;99.90;;;;;;5117788;28;20035;-76
2022/12/08 04:31:07;;;;;;;7.97;5.30;;;2.00;99.90;;;;;;5117873;28;20036;-75
2022/12/08 04:33:34;;;;;;;8.35;5.90;;;1.90;99.90;;;;;;5117381;28;20055;-75
2022/12/08 04:36:00;;;;;;;8.30;5.32;;;2.00;99.90;;;;;;5117770;28;20055;-75
2022/12/08 04:38:27;;;;;;;8.73;5.45;;;2.00;99.90;;;;;;5117440;28;20066;-75
2022/12/08 04:40:52;;;;;;;8.70;5.88;;;2.10;99.90;;;;;;5117799;28;20392;-75
2022/12/08 04:43:19;;;;;;;8.98;5.88;;;2.10;99.90;;;;;;5099477;28;20024;-75
2022/12/08 04:45:45;;;;;;;8.73;5.82;;;2.20;99.90;;;;;;5099645;28;20031;-75
2022/12/08 04:48:12;;;;;;;8.15;5.25;;;2.20;99.90;;;;;;5117691;28;20027;-75
2022/12/08 04:50:40;;;;;;;7.88;5.28;;;2.20;99.90;;;;;;5117963;28;20052;-75
2022/12/08 04:53:06;;;;;;;7.63;5.18;;;2.20;99.90;;;;;;5117671;28;20055;-75
2022/12/08 04:55:32;;;;;;;8.38;5.30;;;2.20;99.90;;;;;;5117522;28;20016;-75
2022/12/08 04:57:58;;;;;;;7.07;4.90;;;2.20;99.90;;;;;;5117483;28;20399;-75
2022/12/08 05:00:23;;;;;;;7.82;5.32;;;2.20;99.90;;;;;;5117840;28;20106;-75
2022/12/08 05:02:49;;;;;;;7.28;5.50;;;2.10;99.90;;;;;;5099198;28;20555;-76
2022/12/08 05:05:15;;;;;;;8.48;5.75;;;2.10;99.90;;;;;;5099361;28;20057;-76
2022/12/08 05:07:40;;;;;;;9.55;6.00;;;2.10;99.90;;;;;;5117596;28;20056;-74
2022/12/08 05:10:07;;;;;;;9.35;6.45;;;2.10;99.90;;;;;;5117135;28;20028;-75
2022/12/08 05:12:32;;;;;;;10.90;6.82;;;2.00;99.90;;;;;;5117310;28;20431;-75
2022/12/08 05:14:58;;;;;;;10.00;5.43;;;1.90;99.90;;;;;;5117265;28;20055;-75
2022/12/08 05:17:24;;;;;;;8.52;6.00;;;2.10;99.90;;;;;;5098934;28;20038;-75
2022/12/08 05:19:49;;;;;;;10.13;5.82;;;2.00;99.90;;;;;;5117738;28;20028;-76
2022/12/08 05:22:15;;;;;;;10.07;6.18;;;2.00;99.90;;;;;;5121461;28;20092;-75
2022/12/08 05:24:41;;;;;;;12.00;7.20;;;2.00;99.90;;;;;;5121346;28;20107;-75
2022/12/08 05:27:09;;;;;;;13.38;7.72;;;1.80;99.90;;;;;;5121165;28;20403;-75
2022/12/08 05:29:34;;;;;;;12.88;8.15;;;1.70;99.90;;;;;;5102973;28;20028;-75
2022/12/08 05:32:00;;;;;;;13.18;7.95;;;1.50;99.90;;;;;;5121047;28;20496;-75
2022/12/08 05:34:26;;;;;;;12.63;7.47;;;1.30;99.90;;;;;;5121250;28;20032;-75
2022/12/08 05:36:51;;;;;;;13.32;7.20;;;1.30;99.90;;;;;;5102572;28;20035;-75
2022/12/08 05:39:17;;;;;;;11.35;7.25;;;1.30;99.90;;;;;;5120478;28;20050;-75
2022/12/08 05:41:43;;;;;;;11.75;7.45;;;1.40;99.90;;;;;;5121281;28;20031;-75
2022/12/08 05:44:09;;;;;;;10.55;6.43;;;1.40;99.90;;;;;;5102818;28;20023;-75
2022/12/08 05:46:35;;;;;;;10.88;6.70;;;1.50;99.90;;;;;;5102674;28;20031;-75
2022/12/08 05:49:02;;;;;;;12.40;7.60;;;1.50;99.90;;;;;;5121329;28;20511;-75
2022/12/08 05:51:28;;;;;;;12.40;6.50;;;1.60;99.90;;;;;;5102643;28;20036;-75
2022/12/08 05:53:54;;;;;;;8.68;5.57;;;1.70;99.90;;;;;;5102628;28;20039;-76
2022/12/08 05:56:20;;;;;;;7.85;5.35;;;1.70;99.90;;;;;;5102674;28;20038;-75
2022/12/08 05:58:46;;;;;;;7.60;5.45;;;1.80;99.90;;;;;;5102214;28;20123;-75
2022/12/08 06:01:20;;;;;;;10.73;5.88;;;1.80;99.90;;;;;;5120801;28;20052;-74
2022/12/08 06:03:46;;;;;;;10.52;5.75;;;1.70;99.90;;;;;;5102444;28;20046;-74
2022/12/08 06:06:12;;;;;;;9.50;6.28;;;1.70;99.90;;;;;;5102007;28;20110;-74
2022/12/08 06:08:37;;;;;;;9.38;5.22;;;1.60;99.90;;;;;;5101570;28;20032;-74
2022/12/08 06:11:03;;;;;;;9.00;5.45;;;1.70;99.90;;;;;;5127952;27;20067;-74
2022/12/08 06:13:28;;;;;;;9.27;5.95;;;1.70;99.90;;;;;;5103871;28;20036;-75
2022/12/08 06:15:54;;;;;;;9.85;6.13;;;1.70;99.90;;;;;;5120630;27;20027;-74
2022/12/08 06:18:20;;;;;;;8.75;5.53;;;1.60;99.90;;;;;;5101554;28;21176;-74
2022/12/08 06:20:46;;;;;;;9.68;6.53;;;1.70;99.90;;;;;;5101879;28;20479;-75
2022/12/08 06:23:12;;;;;;;9.95;6.38;;;1.70;99.90;;;;;;5120476;27;20395;-75
2022/12/08 06:25:38;;;;;;;11.68;6.32;;;1.60;99.90;;;;;;5120170;28;20024;-76
2022/12/08 06:28:05;;;;;;;9.82;5.75;;;1.70;99.90;;;;;;5101998;28;20491;-75
2022/12/08 06:30:30;;;;;;;8.70;5.20;;;1.80;99.90;;;;;;5102017;28;20019;-76
2022/12/08 06:32:56;;;;;;;9.55;6.18;;;1.80;99.90;;;;;;5120192;27;20427;-75
2022/12/08 06:35:22;;;;;;;10.63;5.65;;;1.80;99.90;;;;;;5119777;28;20020;-75
2022/12/08 06:37:47;;;;;;;8.18;5.70;;;1.80;99.90;;;;;;5120334;28;20024;-76
2022/12/08 06:40:13;;;;;;;9.38;5.93;;;1.90;99.90;;;;;;5101733;27;20054;-76
2022/12/08 06:42:46;;;;;;;9.55;6.05;;;1.90;99.90;;;;;;5119886;28;20035;-76
2022/12/08 06:45:16;;;;;;;7.43;4.53;;;1.90;99.90;;;;;;5119472;28;20038;-75
2022/12/08 06:47:41;;;;;;;8.57;5.07;;;2.00;99.90;;;;;;5119973;28;20024;-75
2022/12/08 06:50:09;;;;;;;8.60;5.28;;;2.00;99.90;;;;;;5119572;28;20042;-75
2022/12/08 06:52:35;;;;;;;7.82;4.97;;;2.00;99.90;;;;;;5129494;27;20564;-75
2022/12/08 06:55:01;;;;;;;6.78;4.75;;;1.90;99.90;;;;;;5119831;28;20036;-75
2022/12/08 06:57:26;;;;;;;6.85;4.88;;;1.90;99.90;;;;;;5120029;28;20035;-75
2022/12/08 06:59:52;;;;;;;7.40;5.07;;;2.00;99.90;;;;;;5101434;28;20518;-75
2022/12/08 07:02:17;;;;;;;6.75;4.75;;;1.90;99.90;;;;;;5119681;28;20020;-75
2022/12/08 07:04:43;;;;;;;8.20;5.07;;;1.90;99.90;;;;;;5101767;28;20055;-75
2022/12/08 07:07:09;;;;;;;7.03;4.68;;;2.00;99.90;;;;;;5101268;28;20102;-74
2022/12/08 07:09:35;;;;;;;10.85;5.75;;;2.00;99.90;;;;;;5119863;28;20065;-74
2022/12/08 07:12:02;;;;;;;6.45;4.47;;;2.00;99.90;;;;;;5119339;28;20027;-75
2022/12/08 07:14:28;;;;;;;8.43;5.32;;;2.00;99.90;;;;;;5101222;28;20024;-75
2022/12/08 07:16:54;;;;;;;8.00;4.75;;;2.00;99.90;;;;;;5119391;28;20034;-76
2022/12/08 07:19:19;;;;;;;8.57;4.78;;;2.00;99.90;;;;;;5119537;28;20543;-75
2022/12/08 07:21:45;;;;;;;8.57;5.32;;;1.90;99.90;;;;;;5119483;28;20020;-75
2022/12/08 07:24:10;;;;;;;6.75;5.05;;;1.90;99.90;;;;;;5119372;28;20024;-75
2022/12/08 07:26:37;;;;;;;6.20;4.30;;;1.90;99.90;;;;;;5119367;28;20023;-75
2022/12/08 07:29:03;;;;;;;5.38;4.07;;;1.90;99.90;;;;;;5100875;28;20035;-75
2022/12/08 07:31:28;;;;;;;7.28;3.83;;;1.90;99.90;;;;;;5118767;28;20023;-75
2022/12/08 07:33:55;;;;;;;7.57;4.22;;;1.90;99.90;;;;;;5080119;28;20032;-75
2022/12/08 07:36:22;;;;;;;6.28;4.38;;;1.90;99.90;;;;;;5113038;28;20584;-75
2022/12/08 07:38:49;;;;;;;7.55;4.55;;;1.80;99.90;;;;;;5100526;28;20028;-75
2022/12/08 07:41:17;;;;;;;6.50;3.63;;;1.80;99.90;;;;;;5119172;28;20032;-76
2022/12/08 07:43:43;;;;;;;6.60;4.10;;;1.80;99.90;;;;;;5117626;28;20024;-76
2022/12/08 07:46:18;;;;;;;5.95;4.03;;;1.80;99.90;;;;;;5116915;28;20096;-76
2022/12/08 07:48:45;;;;;;;7.25;4.88;;;1.80;99.90;;;;;;5115184;28;20020;-76
2022/12/08 07:51:12;;;;;;;6.22;4.03;;;1.80;99.90;;;;;;5116098;28;20020;-76
2022/12/08 07:53:43;;;;;;;6.63;4.47;;;1.90;99.90;;;;;;5098135;28;20023;-75
2022/12/08 07:56:10;;;;;;;6.65;3.67;;;1.90;99.90;;;;;;5116370;28;20024;-76
2022/12/08 07:58:36;;;;;;;5.80;3.90;;;2.00;99.90;;;;;;5098395;28;20431;-75
2022/12/08 08:01:02;;;;;;;6.93;4.53;;;2.00;99.90;;;;;;5115756;28;20028;-74
2022/12/08 08:03:27;;;;;;;6.90;3.92;;;2.10;99.90;;;;;;5120698;27;20050;-75
2022/12/08 08:05:53;;;;;;;7.13;4.35;;;2.10;99.90;;;;;;5118722;28;20107;-75
2022/12/08 08:08:19;;;;;;;8.23;5.03;;;2.10;99.90;;;;;;5118185;28;20024;-76
2022/12/08 08:10:46;;;;;;;7.00;4.70;;;2.10;99.90;;;;;;5099655;28;20047;-76
2022/12/08 08:13:12;;;;;;;6.10;3.83;;;2.10;99.90;;;;;;5118504;28;20024;-74
2022/12/08 08:15:38;;;;;;;6.70;3.90;;;2.10;99.90;;;;;;5099978;28;20024;-74
2022/12/08 08:18:04;;;;;;;6.60;4.03;;;2.00;99.90;;;;;;5099072;28;20028;-75
2022/12/08 08:20:30;;;;;;;7.13;4.43;;;2.10;99.90;;;;;;5117853;28;20035;-75
2022/12/08 08:22:55;;;;;;;6.82;3.85;;;2.10;99.90;;;;;;5100256;28;20092;-75
2022/12/08 08:25:21;;;;;;;5.68;3.67;;;2.20;99.90;;;;;;5118037;28;20048;-75
2022/12/08 08:27:47;;;;;;;7.55;4.28;;;2.20;99.90;;;;;;5118449;28;20024;-75
2022/12/08 08:30:14;;;;;;;6.35;4.07;;;2.20;99.90;;;;;;5117803;28;20027;-75
2022/12/08 08:32:40;;;;;;;5.65;3.42;;;2.10;99.90;;;;;;5118072;28;20100;-75
2022/12/08 08:35:06;;;;;;;6.72;4.07;;;2.10;99.90;;;;;;5099945;28;20027;-75
2022/12/08 08:37:32;;;;;;;6.97;4.55;;;2.00;99.90;;;;;;5099700;28;20023;-75
2022/12/08 08:39:57;;;;;;;5.95;3.47;;;2.10;99.90;;;;;;5117701;28;20110;-75
2022/12/08 08:42:23;;;;;;;5.80;3.75;;;2.00;99.90;;;;;;5118065;28;20023;-75
2022/12/08 08:44:49;;;;;;;6.03;3.58;;;2.00;99.90;;;;;;5117927;28;20024;-76
2022/12/08 08:47:14;;;;;;;5.95;3.80;;;2.10;99.90;;;;;;5118064;28;20118;-76
2022/12/08 08:49:40;;;;;;;6.50;3.63;;;2.20;99.90;;;;;;5117842;28;20110;-76
2022/12/08 08:52:06;;;;;;;6.30;3.47;;;2.10;99.90;;;;;;5118026;28;20024;-74
2022/12/08 08:54:32;;;;;;;4.90;3.50;;;2.10;99.90;;;;;;5117382;28;20027;-74
2022/12/08 08:56:59;;;;;;;5.82;3.40;;;2.20;99.90;;;;;;5117936;28;20028;-75
2022/12/08 08:59:26;;;;;;;5.93;3.72;;;2.30;99.90;;;;;;5099144;28;20058;-75
2022/12/08 09:01:52;;;;;;;7.15;3.95;;;2.20;99.90;;;;;;5117722;28;20012;-75
2022/12/08 09:04:21;;;;;;;6.70;3.58;;;2.20;99.90;;;;;;5117700;28;20072;-75
2022/12/08 09:06:47;;;;;;;6.35;3.85;;;2.20;99.90;;;;;;5117972;28;20027;-76
2022/12/08 09:09:13;;;;;;;7.43;3.92;;;2.10;99.90;;;;;;5117265;28;20027;-76
2022/12/08 09:11:39;;;;;;;6.55;3.65;;;2.10;99.90;;;;;;5117973;28;20019;-75
2022/12/08 09:14:05;;;;;;;5.80;3.40;;;2.20;99.90;;;;;;5117381;28;20043;-71
2022/12/08 09:16:31;;;;;;;6.55;4.00;;;2.20;99.90;;;;;;5117730;28;20383;-72
2022/12/08 09:18:56;;;;;;;5.28;3.40;;;2.30;99.90;;;;;;5117531;28;20114;-71
2022/12/08 09:21:25;;;;;;;5.25;3.17;;;2.40;99.90;;;;;;5117830;28;20470;-71
2022/12/08 09:23:57;;;;;;;5.57;3.40;;;2.50;99.90;;;;;;5099025;28;20015;-74
2022/12/08 09:26:23;;;;;;;5.90;3.22;;;2.50;99.90;;;;;;5116067;28;20030;-77
2022/12/08 09:28:50;;;;;;;5.85;3.28;;;2.60;99.90;;;;;;5097951;28;20119;-77
2022/12/08 09:31:17;;;;;;;5.18;3.13;;;2.60;99.90;;;;;;5098182;28;20082;-75
2022/12/08 09:33:43;;;;;;;6.20;3.70;;;2.60;99.90;;;;;;5117018;28;20020;-76
2022/12/08 09:36:10;;;;;;;5.80;3.40;;;2.50;99.90;;;;;;5116868;28;20023;-73
2022/12/08 09:38:36;;;;;;;6.13;3.40;;;2.50;99.90;;;;;;5116605;28;20038;-75
2022/12/08 09:41:06;;;;;;;5.63;3.42;;;2.50;99.90;;;;;;5098696;28;20024;-76
2022/12/08 09:43:40;;;;;;;5.65;3.45;;;2.60;99.90;;;;;;5116861;28;20016;-76
2022/12/08 09:46:09;;;;;;;4.80;2.90;;;2.60;99.90;;;;;;5116795;28;20380;-73
2022/12/08 09:48:41;;;;;;;4.32;2.75;;;2.60;99.90;;;;;;5098258;28;20028;-73
2022/12/08 09:51:08;;;;;;;3.22;2.20;;;2.70;99.90;;;;;;5116808;28;20024;-72
2022/12/08 09:53:48;;;;;;;3.80;2.20;;;2.70;99.90;;;;;;5098136;28;20502;-72
2022/12/08 09:56:28;;;;;;;4.63;2.83;;;2.80;99.90;;;;;;5098226;28;20031;-71
2022/12/08 09:59:21;;;;;;;4.07;2.53;;;2.80;99.90;;;;;;5116071;28;20055;-71
2022/12/08 10:01:47;;;;;;;3.72;2.40;;;2.90;99.90;;;;;;5106435;28;20019;-71
2022/12/08 10:04:13;;;;;;;4.82;2.80;;;3.00;99.90;;;;;;5116479;28;20024;-72
2022/12/08 10:07:08;;;;;;;5.57;3.17;;;3.00;99.90;;;;;;5118160;28;20031;-72
2022/12/08 10:10:06;;;;;;;5.05;2.92;;;2.90;99.90;;;;;;5090969;28;20149;-72
2022/12/08 10:12:55;;;;;;;3.10;2.53;;;2.90;99.90;;;;;;5120325;28;20020;-76
2022/12/08 10:15:36;;;;;;;3.80;2.35;;;2.90;99.90;;;;;;5109377;28;20050;-74
2022/12/08 10:18:15;;;;;;;3.97;2.65;;;2.90;99.90;;;;;;5120215;28;20024;-73
2022/12/08 10:20:42;;;;;;;4.88;3.40;;;2.90;99.90;;;;;;5119863;28;20080;-74
2022/12/08 10:23:21;;;;;;;4.30;2.42;;;2.90;99.90;;;;;;5120167;28;20416;-74
2022/12/08 10:25:49;;;;;;;3.60;2.28;;;2.90;99.90;;;;;;5101510;28;20031;-73
2022/12/08 10:28:15;;;;;;;4.45;2.45;;;3.00;99.90;;;;;;5119787;28;20015;-73
2022/12/08 10:30:41;;;;;;;4.22;2.63;;;3.00;99.90;;;;;;5119795;28;20103;-73
2022/12/08 10:33:15;;;;;;;4.95;3.20;;;3.00;99.90;;;;;;5119787;28;20024;-73
2022/12/08 10:35:48;;;;;;;4.20;2.90;;;3.10;99.90;;;;;;5119622;28;20016;-73
2022/12/08 10:38:16;;;;;;;3.95;2.50;;;3.00;99.90;;;;;;5119642;28;20020;-72
2022/12/08 10:40:44;;;;;;;3.92;2.47;;;3.00;99.90;;;;;;5101629;28;20073;-72
2022/12/08 10:43:19;;;;;;;4.20;2.67;;;3.00;99.90;;;;;;5119705;28;20023;-73
2022/12/08 10:45:45;;;;;;;3.58;2.13;;;3.00;99.90;;;;;;5119406;28;20030;-72
2022/12/08 10:48:16;;;;;;;3.58;2.33;;;3.10;99.90;;;;;;5100983;28;20020;-72
2022/12/08 10:50:43;;;;;;;3.88;2.47;;;3.10;99.90;;;;;;5119478;28;20483;-72
2022/12/08 10:53:28;;;;;;;3.38;2.28;;;3.20;99.90;;;;;;5119364;28;20042;-72
2022/12/08 10:56:00;;;;;;;3.90;2.60;;;3.20;99.90;;;;;;5101170;28;20069;-72
2022/12/08 10:58:32;;;;;;;3.58;2.28;;;3.10;99.90;;;;;;5100807;28;20063;-71
2022/12/08 11:01:16;;;;;;;5.03;2.97;;;3.10;99.90;;;;;;5101101;28;20030;-71
2022/12/08 11:03:59;;;;;;;3.75;2.40;;;3.10;99.90;;;;;;5119445;28;20091;-71
2022/12/08 11:06:27;;;;;;;4.03;2.42;;;3.20;99.90;;;;;;5100909;28;20028;-74
2022/12/08 11:09:21;;;;;;;3.63;2.47;;;3.20;99.90;;;;;;5119022;28;20471;-75
2022/12/08 11:11:50;;;;;;;4.50;2.55;;;3.30;99.90;;;;;;5096708;28;20032;-75
2022/12/08 11:14:26;;;;;;;4.53;2.35;;;3.20;99.90;;;;;;5118713;28;20046;-75
2022/12/08 11:17:03;;;;;;;3.35;2.30;;;3.20;99.90;;;;;;5093101;28;20115;-74
2022/12/08 11:19:29;;;;;;;4.45;2.53;;;3.30;99.90;;;;;;5098415;28;20051;-75
2022/12/08 11:21:55;;;;;;;4.75;2.60;;;3.20;99.90;;;;;;5098502;28;20020;-74
2022/12/08 11:24:24;;;;;;;4.80;2.42;;;3.30;99.90;;;;;;5080068;28;20031;-75
2022/12/08 11:27:04;;;;;;;4.70;2.58;;;3.30;99.90;;;;;;5080101;28;20073;-75
2022/12/08 11:29:32;;;;;;;4.18;3.13;;;3.40;99.90;;;;;;5080289;28;20028;-75
2022/12/08 11:32:11;;;;;;;4.20;2.90;;;3.30;99.90;;;;;;5098301;28;20020;-72
2022/12/08 11:34:45;;;;;;;5.07;2.20;;;3.30;99.90;;;;;;5098345;28;20462;-78
2022/12/08 11:37:20;;;;;;;;;;;3.30;99.90;;;;;;5098668;28;20098;-75
2022/12/08 11:39:49;;;;;;;4.03;2.17;;;3.30;99.90;;;;;;5098148;28;19912;-76
2022/12/08 11:42:19;;;;;;;4.63;2.72;;;3.30;99.90;;;;;;5097919;28;20020;-76
2022/12/08 11:44:54;;;;;;;2.88;1.92;;;3.30;99.90;;;;;;5098106;28;20478;-75
2022/12/08 11:47:27;;;;;;;3.90;2.90;;;3.40;99.90;;;;;;5098170;28;20016;-76
2022/12/08 11:50:14;;;;;;;4.13;2.50;;;3.40;99.90;;;;;;5098081;28;20094;-72
2022/12/08 11:52:46;;;;;;;4.72;2.70;;;3.50;99.90;;;;;;5097959;28;20020;-72
2022/12/08 11:55:33;;;;;;;3.65;2.22;;;3.50;99.90;;;;;;5097853;28;20428;-72
2022/12/08 11:58:10;;;;;;;4.45;2.83;;;3.60;99.90;;;;;;5097460;28;20484;-72
2022/12/08 12:00:36;;;;;;;4.50;2.65;;;3.60;99.90;;;;;;5079519;28;20081;-72
2022/12/08 12:03:11;;;;;;;3.72;2.58;;;3.60;99.90;;;;;;5097627;28;20024;-72
2022/12/08 12:05:52;;;;;;;3.72;2.35;;;3.60;99.90;;;;;;5079488;28;20024;-73
2022/12/08 12:08:41;;;;;;;4.63;2.75;;;3.60;99.90;;;;;;5097444;28;20020;-72
2022/12/08 12:14:31;;;;;;;4.47;2.63;;;3.60;99.90;;;;;;5097775;28;20028;-74
2022/12/08 12:17:06;;;;;;;4.68;2.55;;;3.60;99.90;;;;;;5097262;28;20476;-72
2022/12/08 12:19:37;;;;;;;3.45;2.22;;;3.50;99.90;;;;;;5079194;28;20035;-72
2022/12/08 12:22:18;;;;;;;3.22;2.38;;;3.50;99.90;;;;;;5079124;28;20028;-72
2022/12/08 12:24:47;;;;;;;3.28;2.03;;;3.60;99.90;;;;;;5097288;28;20484;-74
2022/12/08 12:27:13;;;;;;;4.45;2.53;;;3.70;99.90;;;;;;5078971;28;20020;-74
2022/12/08 12:29:46;;;;;;;3.75;2.03;;;3.70;99.90;;;;;;5078611;28;20024;-73
2022/12/08 12:32:12;;;;;;;2.70;1.92;;;3.70;99.90;;;;;;5096975;28;20548;-72
2022/12/08 12:34:59;;;;;;;2.80;1.75;;;3.60;99.90;;;;;;5097182;28;20036;-73
2022/12/08 12:37:36;;;;;;;2.80;1.85;;;3.60;99.90;;;;;;5078873;28;20073;-72
2022/12/08 12:40:10;;;;;;;3.25;2.20;;;3.70;99.90;;;;;;5096940;28;20034;-73
2022/12/08 12:42:47;;;;;;;2.85;2.20;;;3.60;99.90;;;;;;5097159;28;20027;-77
2022/12/08 12:45:16;;;;;;;2.15;1.60;;;3.60;99.90;;;;;;5097059;28;20379;-74
2022/12/08 12:47:55;;;;;;;4.40;1.98;;;3.60;99.90;;;;;;5097078;28;20069;-74
2022/12/08 12:50:41;;;;;;;3.72;2.15;;;3.60;99.90;;;;;;5097031;28;20021;-74
2022/12/08 12:53:15;;;;;;;3.88;1.85;;;3.60;99.90;;;;;;5078807;28;20028;-74
2022/12/08 12:55:44;;;;;;;3.30;1.92;;;3.60;99.90;;;;;;5078785;28;20508;-73
2022/12/08 12:58:34;;;;;;;3.60;2.50;;;3.60;99.90;;;;;;5072190;28;20496;-73
2022/12/08 13:01:12;;;;;;;3.65;2.13;;;3.70;99.90;;;;;;5073919;28;20764;-73
2022/12/08 13:03:37;;;;;;;3.15;2.17;;;3.70;99.90;;;;;;5091142;28;20099;-76
2022/12/08 13:06:03;;;;;;;4.47;2.70;;;3.80;99.90;;;;;;5074132;28;20059;-73
2022/12/08 13:08:30;;;;;;;2.45;2.00;;;3.70;99.90;;;;;;5074585;28;20035;-73
2022/12/08 13:11:00;;;;;;;3.65;2.55;;;3.70;99.90;;;;;;5093634;28;20016;-74
2022/12/08 13:13:27;;;;;;;4.25;2.50;;;3.80;99.90;;;;;;5094010;28;20488;-73
2022/12/08 13:15:54;;;;;;;4.75;3.00;;;3.80;99.90;;;;;;5075820;28;20040;-73